sensor_id;sensor_type;location;lat;lon;timestamp;P1;durP1;ratioP1;P2;durP2;ratioP2
12112;SDS011;6120;52.250;8.478;2023-02-28T00:01:19;4.07;;;2.40;;
12112;SDS011;6120;52.250;8.478;2023-02-28T00:03:46;4.70;;;2.60;;
12112;SDS011;6120;52.250;8.478;2023-02-28T00:06:13;4.80;;;2.50;;
12112;SDS011;6120;52.250;8.478;2023-02-28T00:08:40;5.57;;;2.13;;
12112;SDS011;6120;52.250;8.478;2023-02-28T00:11:08;5.47;;;2.50;;
12112;SDS011;6120;52.250;8.478;2023-02-28T00:13:36;5.60;;;2.20;;
12112;SDS011;6120;52.250;8.478;2023-02-28T00:16:15;5.75;;;2.50;;
12112;SDS011;6120;52.250;8.478;2023-02-28T00:18:43;7.18;;;2.55;;
12112;SDS011;6120;52.250;8.478;2023-02-28T00:21:09;6.53;;;2.40;;
12112;SDS011;6120;52.250;8.478;2023-02-28T00:23:36;4.88;;;1.95;;
12112;SDS011;6120;52.250;8.478;2023-02-28T00:26:03;5.57;;;2.72;;
12112;SDS011;6120;52.250;8.478;2023-02-28T00:28:30;3.55;;;2.08;;
12112;SDS011;6120;52.250;8.478;2023-02-28T00:30:57;5.22;;;2.70;;
12112;SDS011;6120;52.250;8.478;2023-02-28T00:33:24;4.32;;;2.20;;
12112;SDS011;6120;52.250;8.478;2023-02-28T00:35:50;4.38;;;1.95;;
12112;SDS011;6120;52.250;8.478;2023-02-28T00:38:17;5.05;;;2.28;;
12112;SDS011;6120;52.250;8.478;2023-02-28T00:40:44;6.70;;;2.40;;
12112;SDS011;6120;52.250;8.478;2023-02-28T00:43:10;4.28;;;1.92;;
12112;SDS011;6120;52.250;8.478;2023-02-28T00:45:37;5.00;;;2.08;;
12112;SDS011;6120;52.250;8.478;2023-02-28T00:48:04;4.10;;;2.00;;
12112;SDS011;6120;52.250;8.478;2023-02-28T00:50:30;3.00;;;1.70;;
12112;SDS011;6120;52.250;8.478;2023-02-28T00:52:57;6.55;;;2.00;;
12112;SDS011;6120;52.250;8.478;2023-02-28T00:55:24;3.45;;;1.70;;
12112;SDS011;6120;52.250;8.478;2023-02-28T00:57:50;3.42;;;1.70;;
12112;SDS011;6120;52.250;8.478;2023-02-28T01:00:17;5.57;;;1.70;;
12112;SDS011;6120;52.250;8.478;2023-02-28T01:02:44;2.70;;;1.52;;
12112;SDS011;6120;52.250;8.478;2023-02-28T01:05:11;2.80;;;1.30;;
12112;SDS011;6120;52.250;8.478;2023-02-28T01:07:37;2.88;;;1.45;;
12112;SDS011;6120;52.250;8.478;2023-02-28T01:10:04;4.43;;;1.45;;
12112;SDS011;6120;52.250;8.478;2023-02-28T01:12:31;3.72;;;1.42;;
12112;SDS011;6120;52.250;8.478;2023-02-28T01:14:58;2.83;;;1.08;;
12112;SDS011;6120;52.250;8.478;2023-02-28T01:17:24;3.10;;;1.55;;
12112;SDS011;6120;52.250;8.478;2023-02-28T01:19:53;1.58;;;1.13;;
12112;SDS011;6120;52.250;8.478;2023-02-28T01:22:21;2.13;;;1.10;;
12112;SDS011;6120;52.250;8.478;2023-02-28T01:24:48;1.98;;;1.08;;
12112;SDS011;6120;52.250;8.478;2023-02-28T01:27:14;3.60;;;1.42;;
12112;SDS011;6120;52.250;8.478;2023-02-28T01:29:41;2.70;;;1.30;;
12112;SDS011;6120;52.250;8.478;2023-02-28T01:32:07;2.47;;;1.42;;
12112;SDS011;6120;52.250;8.478;2023-02-28T01:34:34;3.38;;;1.50;;
12112;SDS011;6120;52.250;8.478;2023-02-28T01:37:01;2.10;;;1.30;;
12112;SDS011;6120;52.250;8.478;2023-02-28T01:39:27;1.05;;;0.82;;
12112;SDS011;6120;52.250;8.478;2023-02-28T01:41:54;3.53;;;1.35;;
12112;SDS011;6120;52.250;8.478;2023-02-28T01:47:43;2.92;;;1.42;;
12112;SDS011;6120;52.250;8.478;2023-02-28T01:50:12;2.28;;;1.20;;
12112;SDS011;6120;52.250;8.478;2023-02-28T01:52:42;3.08;;;1.20;;
12112;SDS011;6120;52.250;8.478;2023-02-28T01:55:09;2.25;;;1.38;;
12112;SDS011;6120;52.250;8.478;2023-02-28T02:00:11;4.20;;;1.10;;
12112;SDS011;6120;52.250;8.478;2023-02-28T02:02:43;3.88;;;1.38;;
12112;SDS011;6120;52.250;8.478;2023-02-28T02:05:31;2.35;;;1.30;;
12112;SDS011;6120;52.250;8.478;2023-02-28T02:08:01;1.55;;;1.00;;
12112;SDS011;6120;52.250;8.478;2023-02-28T02:10:34;2.42;;;1.23;;
12112;SDS011;6120;52.250;8.478;2023-02-28T02:25:54;1.52;;;1.00;;
12112;SDS011;6120;52.250;8.478;2023-02-28T02:28:42;2.17;;;1.10;;
12112;SDS011;6120;52.250;8.478;2023-02-28T02:31:18;2.15;;;1.10;;
12112;SDS011;6120;52.250;8.478;2023-02-28T02:40:00;2.38;;;1.27;;
12112;SDS011;6120;52.250;8.478;2023-02-28T02:45:17;1.83;;;1.20;;
12112;SDS011;6120;52.250;8.478;2023-02-28T02:47:45;3.72;;;1.30;;
12112;SDS011;6120;52.250;8.478;2023-02-28T02:50:13;2.50;;;1.30;;
12112;SDS011;6120;52.250;8.478;2023-02-28T02:52:48;5.80;;;1.38;;
12112;SDS011;6120;52.250;8.478;2023-02-28T02:55:18;2.67;;;1.23;;
12112;SDS011;6120;52.250;8.478;2023-02-28T03:00:30;4.07;;;1.73;;
12112;SDS011;6120;52.250;8.478;2023-02-28T03:02:59;2.78;;;1.40;;
12112;SDS011;6120;52.250;8.478;2023-02-28T03:05:46;2.20;;;1.38;;
12112;SDS011;6120;52.250;8.478;2023-02-28T03:08:14;3.42;;;1.38;;
12112;SDS011;6120;52.250;8.478;2023-02-28T03:10:42;4.60;;;1.80;;
12112;SDS011;6120;52.250;8.478;2023-02-28T03:15:46;5.63;;;2.00;;
12112;SDS011;6120;52.250;8.478;2023-02-28T03:18:27;4.13;;;1.90;;
12112;SDS011;6120;52.250;8.478;2023-02-28T03:21:11;3.75;;;1.50;;
12112;SDS011;6120;52.250;8.478;2023-02-28T03:23:45;3.03;;;1.60;;
12112;SDS011;6120;52.250;8.478;2023-02-28T03:26:21;3.53;;;1.75;;
12112;SDS011;6120;52.250;8.478;2023-02-28T03:31:37;4.43;;;1.95;;
12112;SDS011;6120;52.250;8.478;2023-02-28T03:36:44;3.78;;;1.80;;
12112;SDS011;6120;52.250;8.478;2023-02-28T03:39:16;6.55;;;2.33;;
12112;SDS011;6120;52.250;8.478;2023-02-28T03:41:57;10.93;;;2.33;;
12112;SDS011;6120;52.250;8.478;2023-02-28T03:44:30;5.75;;;2.60;;
12112;SDS011;6120;52.250;8.478;2023-02-28T03:47:15;7.18;;;2.70;;
12112;SDS011;6120;52.250;8.478;2023-02-28T03:52:49;5.80;;;2.20;;
12112;SDS011;6120;52.250;8.478;2023-02-28T03:55:17;4.00;;;1.95;;
12112;SDS011;6120;52.250;8.478;2023-02-28T03:57:53;4.40;;;2.40;;
12112;SDS011;6120;52.250;8.478;2023-02-28T04:00:26;3.90;;;2.22;;
12112;SDS011;6120;52.250;8.478;2023-02-28T04:02:54;5.53;;;1.83;;
12112;SDS011;6120;52.250;8.478;2023-02-28T04:05:21;5.15;;;1.92;;
12112;SDS011;6120;52.250;8.478;2023-02-28T04:07:48;3.78;;;1.58;;
12112;SDS011;6120;52.250;8.478;2023-02-28T04:10:16;6.47;;;2.20;;
12112;SDS011;6120;52.250;8.478;2023-02-28T04:12:42;2.80;;;1.52;;
12112;SDS011;6120;52.250;8.478;2023-02-28T04:15:09;2.10;;;1.30;;
12112;SDS011;6120;52.250;8.478;2023-02-28T04:17:37;4.88;;;2.17;;
12112;SDS011;6120;52.250;8.478;2023-02-28T04:20:04;2.72;;;1.63;;
12112;SDS011;6120;52.250;8.478;2023-02-28T04:22:36;2.72;;;1.60;;
12112;SDS011;6120;52.250;8.478;2023-02-28T04:25:03;3.53;;;1.85;;
12112;SDS011;6120;52.250;8.478;2023-02-28T04:27:32;3.92;;;2.08;;
12112;SDS011;6120;52.250;8.478;2023-02-28T04:29:58;4.68;;;2.08;;
12112;SDS011;6120;52.250;8.478;2023-02-28T04:32:25;3.78;;;2.15;;
12112;SDS011;6120;52.250;8.478;2023-02-28T04:34:52;6.28;;;2.10;;
12112;SDS011;6120;52.250;8.478;2023-02-28T04:37:18;3.30;;;1.80;;
12112;SDS011;6120;52.250;8.478;2023-02-28T04:39:45;3.47;;;2.05;;
12112;SDS011;6120;52.250;8.478;2023-02-28T04:42:12;4.90;;;2.42;;
12112;SDS011;6120;52.250;8.478;2023-02-28T04:44:39;10.75;;;2.83;;
12112;SDS011;6120;52.250;8.478;2023-02-28T04:47:06;4.65;;;2.60;;
12112;SDS011;6120;52.250;8.478;2023-02-28T04:49:32;4.32;;;2.38;;
12112;SDS011;6120;52.250;8.478;2023-02-28T04:51:59;10.65;;;2.58;;
12112;SDS011;6120;52.250;8.478;2023-02-28T04:54:26;4.78;;;2.40;;
12112;SDS011;6120;52.250;8.478;2023-02-28T04:56:52;3.95;;;2.35;;
12112;SDS011;6120;52.250;8.478;2023-02-28T04:59:19;6.40;;;2.45;;
12112;SDS011;6120;52.250;8.478;2023-02-28T05:01:47;5.17;;;2.40;;
12112;SDS011;6120;52.250;8.478;2023-02-28T05:04:14;4.10;;;2.25;;
12112;SDS011;6120;52.250;8.478;2023-02-28T05:06:41;3.33;;;2.00;;
12112;SDS011;6120;52.250;8.478;2023-02-28T05:09:07;4.60;;;2.35;;
12112;SDS011;6120;52.250;8.478;2023-02-28T05:11:34;4.70;;;2.20;;
12112;SDS011;6120;52.250;8.478;2023-02-28T05:14:05;3.33;;;2.00;;
12112;SDS011;6120;52.250;8.478;2023-02-28T05:16:33;3.65;;;1.90;;
12112;SDS011;6120;52.250;8.478;2023-02-28T05:19:00;6.97;;;1.95;;
12112;SDS011;6120;52.250;8.478;2023-02-28T05:23:58;3.58;;;2.03;;
12112;SDS011;6120;52.250;8.478;2023-02-28T05:26:28;5.10;;;2.08;;
12112;SDS011;6120;52.250;8.478;2023-02-28T05:28:56;3.65;;;2.22;;
12112;SDS011;6120;52.250;8.478;2023-02-28T05:31:22;4.60;;;2.13;;
12112;SDS011;6120;52.250;8.478;2023-02-28T05:33:49;7.35;;;2.28;;
12112;SDS011;6120;52.250;8.478;2023-02-28T05:36:16;6.15;;;2.55;;
12112;SDS011;6120;52.250;8.478;2023-02-28T05:38:42;4.53;;;2.30;;
12112;SDS011;6120;52.250;8.478;2023-02-28T05:41:10;3.80;;;2.20;;
12112;SDS011;6120;52.250;8.478;2023-02-28T05:43:37;5.20;;;2.38;;
12112;SDS011;6120;52.250;8.478;2023-02-28T05:46:08;6.80;;;2.40;;
12112;SDS011;6120;52.250;8.478;2023-02-28T05:48:36;3.67;;;2.10;;
12112;SDS011;6120;52.250;8.478;2023-02-28T05:51:04;4.22;;;2.20;;
12112;SDS011;6120;52.250;8.478;2023-02-28T05:53:31;4.38;;;2.38;;
12112;SDS011;6120;52.250;8.478;2023-02-28T05:55:58;3.58;;;2.22;;
12112;SDS011;6120;52.250;8.478;2023-02-28T05:58:25;6.65;;;2.53;;
12112;SDS011;6120;52.250;8.478;2023-02-28T06:00:57;3.60;;;2.38;;
12112;SDS011;6120;52.250;8.478;2023-02-28T06:03:27;4.65;;;2.28;;
12112;SDS011;6120;52.250;8.478;2023-02-28T06:05:54;3.85;;;2.30;;
12112;SDS011;6120;52.250;8.478;2023-02-28T06:08:20;4.57;;;2.63;;
12112;SDS011;6120;52.250;8.478;2023-02-28T06:10:47;5.97;;;2.40;;
12112;SDS011;6120;52.250;8.478;2023-02-28T06:13:14;5.88;;;2.55;;
12112;SDS011;6120;52.250;8.478;2023-02-28T06:15:41;6.03;;;2.40;;
12112;SDS011;6120;52.250;8.478;2023-02-28T06:18:08;5.57;;;2.35;;
12112;SDS011;6120;52.250;8.478;2023-02-28T06:20:34;6.05;;;2.60;;
12112;SDS011;6120;52.250;8.478;2023-02-28T06:23:02;6.00;;;2.50;;
12112;SDS011;6120;52.250;8.478;2023-02-28T06:25:29;3.25;;;2.13;;
12112;SDS011;6120;52.250;8.478;2023-02-28T06:27:56;3.83;;;2.45;;
12112;SDS011;6120;52.250;8.478;2023-02-28T06:30:23;8.18;;;2.05;;
12112;SDS011;6120;52.250;8.478;2023-02-28T06:32:51;8.80;;;2.70;;
12112;SDS011;6120;52.250;8.478;2023-02-28T06:35:18;5.88;;;2.50;;
12112;SDS011;6120;52.250;8.478;2023-02-28T06:37:45;6.78;;;3.03;;
12112;SDS011;6120;52.250;8.478;2023-02-28T06:42:39;9.00;;;3.80;;
12112;SDS011;6120;52.250;8.478;2023-02-28T06:45:06;12.52;;;3.80;;
12112;SDS011;6120;52.250;8.478;2023-02-28T06:47:36;7.18;;;3.42;;
12112;SDS011;6120;52.250;8.478;2023-02-28T06:50:04;6.30;;;3.45;;
12112;SDS011;6120;52.250;8.478;2023-02-28T06:52:32;7.50;;;3.65;;
12112;SDS011;6120;52.250;8.478;2023-02-28T06:54:59;6.97;;;3.30;;
12112;SDS011;6120;52.250;8.478;2023-02-28T06:57:32;7.20;;;3.45;;
12112;SDS011;6120;52.250;8.478;2023-02-28T06:59:59;11.30;;;3.80;;
12112;SDS011;6120;52.250;8.478;2023-02-28T07:02:27;9.93;;;3.50;;
12112;SDS011;6120;52.250;8.478;2023-02-28T07:04:53;9.80;;;3.45;;
12112;SDS011;6120;52.250;8.478;2023-02-28T07:07:21;7.07;;;3.22;;
12112;SDS011;6120;52.250;8.478;2023-02-28T07:09:47;7.85;;;3.28;;
12112;SDS011;6120;52.250;8.478;2023-02-28T07:12:14;4.45;;;2.70;;
12112;SDS011;6120;52.250;8.478;2023-02-28T07:14:41;6.15;;;3.03;;
12112;SDS011;6120;52.250;8.478;2023-02-28T07:17:08;9.07;;;3.28;;
12112;SDS011;6120;52.250;8.478;2023-02-28T07:19:37;6.55;;;2.42;;
12112;SDS011;6120;52.250;8.478;2023-02-28T07:22:04;5.03;;;2.43;;
12112;SDS011;6120;52.250;8.478;2023-02-28T07:24:31;8.00;;;2.03;;
12112;SDS011;6120;52.250;8.478;2023-02-28T07:26:59;5.95;;;1.90;;
12112;SDS011;6120;52.250;8.478;2023-02-28T07:29:27;5.93;;;2.28;;
12112;SDS011;6120;52.250;8.478;2023-02-28T07:31:53;3.63;;;1.90;;
12112;SDS011;6120;52.250;8.478;2023-02-28T07:34:20;5.40;;;1.90;;
12112;SDS011;6120;52.250;8.478;2023-02-28T07:36:47;6.53;;;1.83;;
12112;SDS011;6120;52.250;8.478;2023-02-28T07:39:13;2.55;;;1.50;;
12112;SDS011;6120;52.250;8.478;2023-02-28T07:41:40;4.43;;;1.92;;
12112;SDS011;6120;52.250;8.478;2023-02-28T07:44:13;2.10;;;1.35;;
12112;SDS011;6120;52.250;8.478;2023-02-28T07:46:39;4.47;;;1.90;;
12112;SDS011;6120;52.250;8.478;2023-02-28T07:49:06;3.47;;;1.58;;
12112;SDS011;6120;52.250;8.478;2023-02-28T07:51:33;3.25;;;1.70;;
12112;SDS011;6120;52.250;8.478;2023-02-28T07:53:59;3.85;;;1.85;;
12112;SDS011;6120;52.250;8.478;2023-02-28T07:56:26;5.25;;;2.00;;
12112;SDS011;6120;52.250;8.478;2023-02-28T07:58:53;3.40;;;1.40;;
12112;SDS011;6120;52.250;8.478;2023-02-28T08:01:20;4.88;;;1.40;;
12112;SDS011;6120;52.250;8.478;2023-02-28T08:03:47;2.90;;;1.30;;
12112;SDS011;6120;52.250;8.478;2023-02-28T08:06:18;1.83;;;1.23;;
12112;SDS011;6120;52.250;8.478;2023-02-28T08:08:46;4.00;;;1.50;;
12112;SDS011;6120;52.250;8.478;2023-02-28T08:11:13;5.47;;;1.60;;
12112;SDS011;6120;52.250;8.478;2023-02-28T08:13:40;2.45;;;1.42;;
12112;SDS011;6120;52.250;8.478;2023-02-28T08:16:08;3.30;;;1.30;;
12112;SDS011;6120;52.250;8.478;2023-02-28T08:18:35;2.67;;;1.40;;
12112;SDS011;6120;52.250;8.478;2023-02-28T08:21:08;4.55;;;1.40;;
12112;SDS011;6120;52.250;8.478;2023-02-28T08:23:35;4.20;;;1.40;;
12112;SDS011;6120;52.250;8.478;2023-02-28T08:26:02;2.97;;;1.40;;
12112;SDS011;6120;52.250;8.478;2023-02-28T08:28:29;2.83;;;1.45;;
12112;SDS011;6120;52.250;8.478;2023-02-28T08:30:56;2.10;;;1.33;;
12112;SDS011;6120;52.250;8.478;2023-02-28T08:33:23;3.28;;;1.35;;
12112;SDS011;6120;52.250;8.478;2023-02-28T08:35:56;2.63;;;1.50;;
12112;SDS011;6120;52.250;8.478;2023-02-28T08:38:23;7.45;;;2.58;;
12112;SDS011;6120;52.250;8.478;2023-02-28T08:40:49;6.45;;;3.03;;
12112;SDS011;6120;52.250;8.478;2023-02-28T08:43:16;5.88;;;3.45;;
12112;SDS011;6120;52.250;8.478;2023-02-28T08:45:43;7.13;;;3.75;;
12112;SDS011;6120;52.250;8.478;2023-02-28T08:48:09;7.10;;;3.65;;
12112;SDS011;6120;52.250;8.478;2023-02-28T08:50:36;8.15;;;3.30;;
12112;SDS011;6120;52.250;8.478;2023-02-28T08:53:03;6.38;;;3.42;;
12112;SDS011;6120;52.250;8.478;2023-02-28T08:55:30;5.55;;;3.50;;
12112;SDS011;6120;52.250;8.478;2023-02-28T08:57:56;7.10;;;3.13;;
12112;SDS011;6120;52.250;8.478;2023-02-28T09:00:24;9.05;;;4.28;;
12112;SDS011;6120;52.250;8.478;2023-02-28T09:02:51;6.00;;;3.53;;
12112;SDS011;6120;52.250;8.478;2023-02-28T09:05:18;7.00;;;3.45;;
12112;SDS011;6120;52.250;8.478;2023-02-28T09:07:44;5.75;;;3.28;;
12112;SDS011;6120;52.250;8.478;2023-02-28T09:10:11;10.30;;;3.40;;
12112;SDS011;6120;52.250;8.478;2023-02-28T09:12:38;7.55;;;3.30;;
12112;SDS011;6120;52.250;8.478;2023-02-28T09:15:05;6.20;;;3.35;;
12112;SDS011;6120;52.250;8.478;2023-02-28T09:17:32;5.57;;;2.87;;
12112;SDS011;6120;52.250;8.478;2023-02-28T09:19:59;4.65;;;2.60;;
12112;SDS011;6120;52.250;8.478;2023-02-28T09:22:26;5.28;;;2.33;;
12112;SDS011;6120;52.250;8.478;2023-02-28T09:24:53;3.70;;;1.80;;
12112;SDS011;6120;52.250;8.478;2023-02-28T09:27:19;2.55;;;1.80;;
12112;SDS011;6120;52.250;8.478;2023-02-28T09:29:46;3.80;;;2.50;;
12112;SDS011;6120;52.250;8.478;2023-02-28T09:32:12;3.25;;;1.10;;
12112;SDS011;6120;52.250;8.478;2023-02-28T09:34:39;3.20;;;1.25;;
12112;SDS011;6120;52.250;8.478;2023-02-28T09:37:06;2.80;;;1.50;;
12112;SDS011;6120;52.250;8.478;2023-02-28T09:39:33;3.45;;;1.48;;
12112;SDS011;6120;52.250;8.478;2023-02-28T09:41:59;2.40;;;1.48;;
12112;SDS011;6120;52.250;8.478;2023-02-28T09:44:41;2.95;;;1.50;;
12112;SDS011;6120;52.250;8.478;2023-02-28T09:49:40;2.53;;;1.33;;
12112;SDS011;6120;52.250;8.478;2023-02-28T09:52:10;4.97;;;1.77;;
12112;SDS011;6120;52.250;8.478;2023-02-28T09:54:40;3.00;;;1.30;;
12112;SDS011;6120;52.250;8.478;2023-02-28T09:57:10;2.67;;;1.10;;
12112;SDS011;6120;52.250;8.478;2023-02-28T09:59:46;2.13;;;1.02;;
12112;SDS011;6120;52.250;8.478;2023-02-28T10:05:05;2.40;;;1.17;;
12112;SDS011;6120;52.250;8.478;2023-02-28T10:10:47;3.22;;;1.17;;
12112;SDS011;6120;52.250;8.478;2023-02-28T10:15:52;3.60;;;1.80;;
12112;SDS011;6120;52.250;8.478;2023-02-28T10:18:24;4.95;;;2.47;;
12112;SDS011;6120;52.250;8.478;2023-02-28T10:20:53;6.35;;;2.45;;
12112;SDS011;6120;52.250;8.478;2023-02-28T10:25:59;4.10;;;1.60;;
12112;SDS011;6120;52.250;8.478;2023-02-28T10:28:28;5.72;;;1.90;;
12112;SDS011;6120;52.250;8.478;2023-02-28T10:30:57;5.88;;;2.60;;
12112;SDS011;6120;52.250;8.478;2023-02-28T10:36:01;3.35;;;2.15;;
12112;SDS011;6120;52.250;8.478;2023-02-28T10:41:43;3.40;;;2.15;;
12112;SDS011;6120;52.250;8.478;2023-02-28T10:46:49;3.97;;;1.58;;
12112;SDS011;6120;52.250;8.478;2023-02-28T10:49:19;3.67;;;1.30;;
12112;SDS011;6120;52.250;8.478;2023-02-28T10:52:00;2.25;;;1.23;;
12112;SDS011;6120;52.250;8.478;2023-02-28T10:57:17;1.80;;;1.20;;
12112;SDS011;6120;52.250;8.478;2023-02-28T10:59:46;2.65;;;1.27;;
12112;SDS011;6120;52.250;8.478;2023-02-28T11:02:31;2.38;;;1.15;;
12112;SDS011;6120;52.250;8.478;2023-02-28T11:05:04;2.22;;;1.00;;
12112;SDS011;6120;52.250;8.478;2023-02-28T11:07:54;2.37;;;1.30;;
12112;SDS011;6120;52.250;8.478;2023-02-28T11:10:37;2.33;;;1.00;;
12112;SDS011;6120;52.250;8.478;2023-02-28T11:13:04;1.77;;;1.00;;
12112;SDS011;6120;52.250;8.478;2023-02-28T11:15:34;1.55;;;0.93;;
12112;SDS011;6120;52.250;8.478;2023-02-28T11:18:04;2.63;;;1.00;;
12112;SDS011;6120;52.250;8.478;2023-02-28T11:20:47;2.85;;;1.38;;
12112;SDS011;6120;52.250;8.478;2023-02-28T11:23:16;3.80;;;1.58;;
12112;SDS011;6120;52.250;8.478;2023-02-28T11:25:46;1.92;;;1.15;;
12112;SDS011;6120;52.250;8.478;2023-02-28T11:28:34;2.20;;;1.10;;
12112;SDS011;6120;52.250;8.478;2023-02-28T11:33:46;5.68;;;1.27;;
12112;SDS011;6120;52.250;8.478;2023-02-28T11:36:20;6.18;;;1.40;;
12112;SDS011;6120;52.250;8.478;2023-02-28T11:38:56;3.35;;;1.55;;
12112;SDS011;6120;52.250;8.478;2023-02-28T11:44:28;3.28;;;1.60;;
12112;SDS011;6120;52.250;8.478;2023-02-28T11:55:35;4.68;;;2.03;;
12112;SDS011;6120;52.250;8.478;2023-02-28T12:08:46;3.00;;;1.35;;
12112;SDS011;6120;52.250;8.478;2023-02-28T12:13:48;3.78;;;1.30;;
12112;SDS011;6120;52.250;8.478;2023-02-28T12:16:41;7.28;;;1.95;;
12112;SDS011;6120;52.250;8.478;2023-02-28T12:27:43;2.53;;;1.35;;
12112;SDS011;6120;52.250;8.478;2023-02-28T12:30:28;2.15;;;1.30;;
12112;SDS011;6120;52.250;8.478;2023-02-28T12:35:33;3.70;;;1.33;;
12112;SDS011;6120;52.250;8.478;2023-02-28T12:38:12;3.00;;;1.48;;
12112;SDS011;6120;52.250;8.478;2023-02-28T12:40:54;3.05;;;1.50;;
12112;SDS011;6120;52.250;8.478;2023-02-28T12:43:31;4.70;;;1.40;;
12112;SDS011;6120;52.250;8.478;2023-02-28T12:46:01;3.20;;;1.40;;
12112;SDS011;6120;52.250;8.478;2023-02-28T12:48:40;4.50;;;1.83;;
12112;SDS011;6120;52.250;8.478;2023-02-28T12:51:08;3.05;;;1.27;;
12112;SDS011;6120;52.250;8.478;2023-02-28T12:56:44;3.05;;;1.30;;
12112;SDS011;6120;52.250;8.478;2023-02-28T12:59:48;3.65;;;1.25;;
12112;SDS011;6120;52.250;8.478;2023-02-28T13:07:38;2.45;;;1.30;;
12112;SDS011;6120;52.250;8.478;2023-02-28T13:10:12;5.20;;;1.40;;
12112;SDS011;6120;52.250;8.478;2023-02-28T13:12:52;2.95;;;1.50;;
12112;SDS011;6120;52.250;8.478;2023-02-28T13:15:26;3.50;;;1.85;;
12112;SDS011;6120;52.250;8.478;2023-02-28T13:17:56;4.35;;;1.48;;
12112;SDS011;6120;52.250;8.478;2023-02-28T13:20:25;3.83;;;1.52;;
12112;SDS011;6120;52.250;8.478;2023-02-28T13:22:55;3.80;;;1.70;;
12112;SDS011;6120;52.250;8.478;2023-02-28T13:28:09;4.05;;;1.70;;
12112;SDS011;6120;52.250;8.478;2023-02-28T13:35:46;4.95;;;1.80;;
12112;SDS011;6120;52.250;8.478;2023-02-28T13:38:16;4.78;;;2.42;;
12112;SDS011;6120;52.250;8.478;2023-02-28T13:40:48;5.43;;;1.92;;
12112;SDS011;6120;52.250;8.478;2023-02-28T13:43:16;3.60;;;2.15;;
12112;SDS011;6120;52.250;8.478;2023-02-28T13:46:10;6.47;;;1.83;;
12112;SDS011;6120;52.250;8.478;2023-02-28T13:48:38;4.18;;;2.05;;
12112;SDS011;6120;52.250;8.478;2023-02-28T13:54:12;3.60;;;1.90;;
12112;SDS011;6120;52.250;8.478;2023-02-28T13:59:50;3.63;;;2.10;;
12112;SDS011;6120;52.250;8.478;2023-02-28T14:05:18;4.50;;;2.13;;
12112;SDS011;6120;52.250;8.478;2023-02-28T14:07:54;5.13;;;2.40;;
12112;SDS011;6120;52.250;8.478;2023-02-28T14:10:30;5.32;;;2.65;;
12112;SDS011;6120;52.250;8.478;2023-02-28T14:16:14;4.93;;;2.03;;
12112;SDS011;6120;52.250;8.478;2023-02-28T14:19:09;4.07;;;2.08;;
12112;SDS011;6120;52.250;8.478;2023-02-28T14:21:36;4.82;;;2.30;;
12112;SDS011;6120;52.250;8.478;2023-02-28T14:35:02;3.03;;;1.77;;
12112;SDS011;6120;52.250;8.478;2023-02-28T14:37:41;3.00;;;1.70;;
12112;SDS011;6120;52.250;8.478;2023-02-28T14:40:12;3.15;;;1.70;;
12112;SDS011;6120;52.250;8.478;2023-02-28T14:42:46;3.40;;;1.70;;
12112;SDS011;6120;52.250;8.478;2023-02-28T14:45:21;1.73;;;1.30;;
12112;SDS011;6120;52.250;8.478;2023-02-28T14:47:49;2.70;;;1.52;;
12112;SDS011;6120;52.250;8.478;2023-02-28T14:50:17;3.80;;;1.63;;
12112;SDS011;6120;52.250;8.478;2023-02-28T14:52:45;3.13;;;2.03;;
12112;SDS011;6120;52.250;8.478;2023-02-28T14:55:14;2.35;;;1.60;;
12112;SDS011;6120;52.250;8.478;2023-02-28T14:57:50;2.25;;;1.60;;
12112;SDS011;6120;52.250;8.478;2023-02-28T15:02:56;4.50;;;1.65;;
12112;SDS011;6120;52.250;8.478;2023-02-28T15:05:25;3.40;;;1.45;;
12112;SDS011;6120;52.250;8.478;2023-02-28T15:08:01;4.05;;;1.85;;
12112;SDS011;6120;52.250;8.478;2023-02-28T15:10:30;3.22;;;1.70;;
12112;SDS011;6120;52.250;8.478;2023-02-28T15:18:46;4.50;;;1.73;;
12112;SDS011;6120;52.250;8.478;2023-02-28T15:21:30;4.40;;;1.80;;
12112;SDS011;6120;52.250;8.478;2023-02-28T15:24:00;4.00;;;1.70;;
12112;SDS011;6120;52.250;8.478;2023-02-28T15:26:35;2.08;;;1.33;;
12112;SDS011;6120;52.250;8.478;2023-02-28T15:29:10;4.40;;;1.40;;
12112;SDS011;6120;52.250;8.478;2023-02-28T15:31:43;2.85;;;1.50;;
12112;SDS011;6120;52.250;8.478;2023-02-28T15:34:26;2.97;;;1.50;;
12112;SDS011;6120;52.250;8.478;2023-02-28T15:40:16;4.10;;;1.52;;
12112;SDS011;6120;52.250;8.478;2023-02-28T15:45:26;2.80;;;1.60;;
12112;SDS011;6120;52.250;8.478;2023-02-28T15:47:54;2.13;;;1.35;;
12112;SDS011;6120;52.250;8.478;2023-02-28T15:50:27;2.60;;;1.48;;
12112;SDS011;6120;52.250;8.478;2023-02-28T15:52:56;3.28;;;1.40;;
12112;SDS011;6120;52.250;8.478;2023-02-28T15:55:24;4.13;;;1.45;;
12112;SDS011;6120;52.250;8.478;2023-02-28T15:57:54;3.42;;;1.38;;
12112;SDS011;6120;52.250;8.478;2023-02-28T16:00:24;4.50;;;1.77;;
12112;SDS011;6120;52.250;8.478;2023-02-28T16:05:25;3.25;;;1.63;;
12112;SDS011;6120;52.250;8.478;2023-02-28T16:08:06;2.72;;;1.60;;
12112;SDS011;6120;52.250;8.478;2023-02-28T16:10:39;3.03;;;1.40;;
12112;SDS011;6120;52.250;8.478;2023-02-28T16:13:06;3.92;;;1.67;;
12112;SDS011;6120;52.250;8.478;2023-02-28T16:15:35;4.65;;;1.60;;
12112;SDS011;6120;52.250;8.478;2023-02-28T16:18:09;2.65;;;1.63;;
12112;SDS011;6120;52.250;8.478;2023-02-28T16:20:37;2.30;;;1.40;;
12112;SDS011;6120;52.250;8.478;2023-02-28T16:23:04;4.20;;;1.55;;
12112;SDS011;6120;52.250;8.478;2023-02-28T16:25:38;3.72;;;1.52;;
12112;SDS011;6120;52.250;8.478;2023-02-28T16:28:18;2.55;;;1.60;;
12112;SDS011;6120;52.250;8.478;2023-02-28T16:30:47;3.22;;;1.60;;
12112;SDS011;6120;52.250;8.478;2023-02-28T16:33:14;3.40;;;1.80;;
12112;SDS011;6120;52.250;8.478;2023-02-28T16:35:40;3.63;;;1.80;;
12112;SDS011;6120;52.250;8.478;2023-02-28T16:38:07;3.72;;;1.90;;
12112;SDS011;6120;52.250;8.478;2023-02-28T16:40:34;2.92;;;1.65;;
12112;SDS011;6120;52.250;8.478;2023-02-28T16:43:04;4.95;;;1.77;;
12112;SDS011;6120;52.250;8.478;2023-02-28T16:45:34;3.10;;;1.35;;
12112;SDS011;6120;52.250;8.478;2023-02-28T16:48:01;3.35;;;1.83;;
12112;SDS011;6120;52.250;8.478;2023-02-28T16:50:29;3.70;;;1.40;;
12112;SDS011;6120;52.250;8.478;2023-02-28T16:52:58;3.05;;;1.42;;
12112;SDS011;6120;52.250;8.478;2023-02-28T16:55:25;2.50;;;1.55;;
12112;SDS011;6120;52.250;8.478;2023-02-28T16:57:54;3.35;;;1.55;;
12112;SDS011;6120;52.250;8.478;2023-02-28T17:00:22;2.70;;;1.30;;
12112;SDS011;6120;52.250;8.478;2023-02-28T17:02:50;3.35;;;1.67;;
12112;SDS011;6120;52.250;8.478;2023-02-28T17:05:17;2.17;;;1.42;;
12112;SDS011;6120;52.250;8.478;2023-02-28T17:07:45;3.95;;;1.33;;
12112;SDS011;6120;52.250;8.478;2023-02-28T17:10:19;3.47;;;1.60;;
12112;SDS011;6120;52.250;8.478;2023-02-28T17:12:50;4.43;;;1.70;;
12112;SDS011;6120;52.250;8.478;2023-02-28T17:15:18;2.70;;;1.40;;
12112;SDS011;6120;52.250;8.478;2023-02-28T17:17:46;4.18;;;2.10;;
12112;SDS011;6120;52.250;8.478;2023-02-28T17:20:14;3.13;;;1.80;;
12112;SDS011;6120;52.250;8.478;2023-02-28T17:22:42;2.22;;;1.40;;
12112;SDS011;6120;52.250;8.478;2023-02-28T17:25:09;5.80;;;2.10;;
12112;SDS011;6120;52.250;8.478;2023-02-28T17:27:36;4.20;;;1.98;;
12112;SDS011;6120;52.250;8.478;2023-02-28T17:30:09;5.78;;;1.98;;
12112;SDS011;6120;52.250;8.478;2023-02-28T17:32:40;4.47;;;2.17;;
12112;SDS011;6120;52.250;8.478;2023-02-28T17:35:07;4.32;;;2.42;;
12112;SDS011;6120;52.250;8.478;2023-02-28T17:37:34;3.95;;;2.00;;
12112;SDS011;6120;52.250;8.478;2023-02-28T17:40:02;5.20;;;2.40;;
12112;SDS011;6120;52.250;8.478;2023-02-28T17:42:29;5.05;;;2.33;;
12112;SDS011;6120;52.250;8.478;2023-02-28T17:44:57;5.10;;;2.50;;
12112;SDS011;6120;52.250;8.478;2023-02-28T17:47:24;5.00;;;2.30;;
12112;SDS011;6120;52.250;8.478;2023-02-28T17:49:51;4.88;;;2.42;;
12112;SDS011;6120;52.250;8.478;2023-02-28T17:52:18;4.03;;;2.42;;
12112;SDS011;6120;52.250;8.478;2023-02-28T17:54:45;4.75;;;2.30;;
12112;SDS011;6120;52.250;8.478;2023-02-28T17:57:13;5.93;;;2.10;;
12112;SDS011;6120;52.250;8.478;2023-02-28T18:02:09;4.10;;;2.42;;
12112;SDS011;6120;52.250;8.478;2023-02-28T18:04:38;5.57;;;2.38;;